Flight Track Log - Related Links

Times and Time Zones

All times are in EDT time to prevent confusion due to time zone crossing. See the BJS444 flight status page for this flight to view local times or setup timezone preferences in your user account.

Time Position Orientation Groundspeed Altitude Reporting Facility
EDT Latitude Longitude Course Direction KTS MPH feet Rate Location/Type
Tue 09:11:39 PM 42.2239 -83.5469 76° East 160 184 1,800  Level Cleveland Center
Tue 09:12:39 PM 42.1914 -83.6017 231° Southwest 185 213 3,600 2,476 Climbing Cleveland Center
Tue 09:13:45 PM 42.1386 -83.6214 195° South 206 237 7,000 2,952 Climbing Cleveland Center
Tue 09:14:45 PM 42.1092 -83.5528 120° Southeast 214 246 9,800 3,000 Climbing Cleveland Center
Tue 09:15:45 PM 42.1392 -83.4367 71° East 239 275 13,000 3,800 Climbing Cleveland Center
Tue 09:16:45 PM 42.1714 -83.3064 72° East 341 392 17,400 4,300 Climbing Cleveland Center
Tue 09:17:00 PM 42.3395 -82.5998 76° East  Level FlightAware Approximate
Tue 09:17:45 PM 42.2039 -83.1706 72° East 361 415 21,600  Level Cleveland Center
Tue 09:18:45 PM 42.2383 -83.0203 73° East 388 447 22,800 2,200 Climbing Cleveland Center
Tue 09:19:45 PM 42.2750 -82.8675 72° East 406 467 26,000 3,000 Climbing Cleveland Center
Tue 09:20:45 PM 42.3092 -82.7169 73° East 417 480 28,800 2,600 Climbing Cleveland Center
Tue 09:21:45 PM 42.3431 -82.5608 74° East 417 480 31,200 1,900 Climbing Cleveland Center
Tue 09:22:45 PM 42.3647 -82.3956 80° East 424 488 32,600 1,600 Climbing Cleveland Center
Tue 09:23:45 PM 42.3589 -82.2242 93° East 438 504 34,400 1,350 Climbing Cleveland Center
Tue 09:24:45 PM 42.3447 -82.0383 96° East 448 516 35,300 800 Climbing Cleveland Center
Tue 09:25:45 PM 42.2925 -81.8744 113° Southeast 454 522 36,000 650 Climbing Cleveland Center
Tue 09:26:45 PM 42.2481 -81.7361 113° Southeast 454 522 36,600 1,550 Climbing Cleveland Center
Tue 09:27:45 PM 42.2308 -81.5758 98° East 437 503 39,100 2,050 Climbing Cleveland Center
Tue 09:28:45 PM 42.2194 -81.4269 96° East 412 474 40,700 950 Climbing Cleveland Center
Tue 09:29:45 PM 42.2081 -81.2756 96° East 406 467 41,000 150 Climbing Cleveland Center
Tue 09:30:45 PM 42.1944 -81.1044 96° East 433 498 41,000  Level Cleveland Center
Tue 09:31:45 PM 42.1783 -80.9222 97° East 447 514 41,000  Level Cleveland Center
Tue 09:32:45 PM 42.1600 -80.7483 98° East 458 527 41,000  Level Cleveland Center
Tue 09:33:45 PM 42.1456 -80.5775 96° East 463 533 41,000  Level Cleveland Center
Tue 09:34:45 PM 42.1308 -80.4067 97° East 462 532 41,000  Level Cleveland Center
Tue 09:35:45 PM 42.1136 -80.2389 98° East 462 532 41,000  Level Cleveland Center
Tue 09:36:45 PM 42.0983 -80.0628 97° East 462 532 41,000  Level Cleveland Center
Tue 09:37:45 PM 42.0831 -79.8978 97° East 457 526 41,000  Level Cleveland Center
Tue 09:38:45 PM 42.0653 -79.7272 98° East 457 526 41,000  Level Cleveland Center
Tue 09:39:45 PM 42.0492 -79.5569 97° East 457 526 41,000  Level Cleveland Center
Tue 09:40:45 PM 42.0331 -79.3867 97° East 457 526 41,000  Level Cleveland Center
Tue 09:41:45 PM 42.0144 -79.2136 98° East 462 532 41,000  Level Cleveland Center
Tue 09:42:45 PM 41.9956 -79.0381 98° East 467 537 41,000  Level Cleveland Center
Tue 09:43:45 PM 41.9764 -78.8625 98° East 467 537 41,000  Level Cleveland Center
Tue 09:44:45 PM 41.9589 -78.6872 98° East 472 543 41,000  Level Cleveland Center
Tue 09:45:45 PM 41.9414 -78.5147 98° East 472 543 41,000  Level Cleveland Center
Tue 09:46:45 PM 41.9194 -78.3394 99° East 472 543 41,000 -900 Level Cleveland Center
Tue 09:47:45 PM 41.8992 -78.1700 99° East 465 535 39,200 -2,011 Descending Cleveland Center
Tue 09:49:41 PM 41.8667 -77.8817 99° East 438 504 35,100 -1,424 Descending New York Center
Tue 09:50:42 PM 41.8286 -77.7161 107° East 438 504 35,000 -50 Descending New York Center
Tue 09:51:40 PM 41.7856 -77.5586 110° East 450 518 35,000  Level New York Center
Tue 09:52:40 PM 41.7450 -77.3958 108° East 455 524 35,000 -700 Level New York Center
Tue 09:53:40 PM 41.7014 -77.2389 110° East 460 529 33,600 -1,636 Descending New York Center
Tue 09:54:41 PM 41.6561 -77.0733 110° East 460 529 31,700 -1,918 Descending New York Center
Tue 09:55:42 PM 41.6128 -76.9083 109° East 465 535 29,700 -2,034 Descending New York Center
Tue 09:56:39 PM 41.5672 -76.7406 110° East 465 535 27,700 -2,085 Descending New York Center
Tue 09:57:40 PM 41.5175 -76.5642 111° Southeast 465 535 25,600 -1,785 Descending New York Center
Tue 09:58:40 PM 41.4733 -76.4000 110° East 465 535 24,100 -793 Descending New York Center
Tue 09:59:41 PM 41.4311 -76.2331 109° East 465 535 24,000 -645 Descending New York Center
Tue 10:00:41 PM 41.3819 -76.0797 113° Southeast 459 528 22,800 -1,650 Descending New York Center
Tue 10:01:41 PM 41.3461 -75.9442 109° East 452 520 20,700 -2,479 Descending New York Center
Tue 10:02:42 PM 41.2969 -75.7803 112° Southeast 438 504 17,800 -2,529 Descending New York Center
Tue 10:03:42 PM 41.2569 -75.6422 111° Southeast 422 486 15,600 -2,154 Descending New York Center
Tue 10:04:39 PM 41.2125 -75.5092 114° Southeast 401 461 13,600 -1,881 Descending New York Center
Tue 10:05:40 PM 41.1750 -75.3992 114° Southeast 376 433 11,900 -1,672 Descending New York Center
Tue 10:06:41 PM 41.1397 -75.2892 113° Southeast 344 396 10,200 -1,918 Descending New York Center
Tue 10:07:42 PM 41.1042 -75.1850 114° Southeast 291 335 8,000 -1,664 Descending New York Center
Tue 10:08:40 PM 41.0742 -75.0950 114° Southeast 270 311 6,900 -966 Descending New York Center
Tue 10:09:40 PM 41.0461 -75.0078 113° Southeast 263 303 6,100 -450 Descending New York Center
Tue 10:10:40 PM 41.0200 -74.9183 111° Southeast 263 303 6,000 -300 Descending New York Center
Tue 10:12:00 PM 40.9654 -74.7745 101° East  Level FlightAware Approximate
Tue 10:12:40 PM 40.9994 -74.7272 101° East 258 297 5,200  Level New York Center
Tue 10:13:41 PM 40.9961 -74.6419 93° East 253 291 5,000 -202 Descending New York Center
Tue 10:14:39 PM 41.0033 -74.5489 84° East 248 285 4,800 -504 Descending New York Center
Tue 10:15:40 PM 41.0081 -74.4611 86° East 243 280 4,000 -659 Descending New York Center
Tue 10:17:00 PM 40.9469 -74.3054 114° Southeast  Level Estimated
Tue 10:18:45 PM 40.9833 -74.2000 101° East 218 251 2,100  Level New York TRACON
Tue 10:19:44 PM 40.9833 -74.1167 90° East 195 224 2,000 -105 Descending New York TRACON
Tue 10:20:39 PM 40.9667 -74.0833 124° Southeast 171 197 1,900 -300 Descending New York TRACON
Tue 10:21:44 PM 40.9167 -74.0500 153° Southeast 146 168 1,400 -571 Descending New York TRACON
Tue 10:22:45 PM 40.8833 -74.0500 180° South 125 144 700 -689 Descending New York TRACON
Tue 10:24:00 PM 40.8501 -74.0608 101° East  Level Estimated
Tue 10:24:00 PM 40.8500 -74.0500 159° South  Level FlightAware Approximate
Tue 10:31:00 PM 40.8501 -74.0608 159° South  Level Estimated
Tue 10:32:00 PM 40.8501 -74.0608 159° South  Level Estimated

Login

Don't have an account? Register now (free) for customized features, flight alerts, and more!